Impacts TAF Board INFO
FOR SITUATIONAL AWARENESS. NOT TO BE USED FOR FLIGHT PLANNING PURPOSES.
IDs:

KMIA - Miami Intl, FL, US

Issued at 1720 UTC 18 Jan 2017
Updated at 2203 UTC 18 Jan 2017
Potential Impact None Slight Moderate High
Time2153Z 18/23Z 19/00Z 19/01Z 19/02Z 19/03Z 19/04Z 19/05Z 19/06Z 19/07Z 19/08Z 19/09Z 19/10Z 19/11Z
Type OBS PRVL PRVL PRVL PRVL PRVL PRVL PRVL PRVL PRVL PRVL PRVL PRVL PRVL
VIS 10 >6 >6 >6 >6 >6 >6 >6 >6 >6 >6 >6 >6 >6
CIG 250 -- -- -- -- -- -- -- -- -- -- -- -- --
Cover BKN SCT SKC SKC SKC SKC SKC SKC SKC SKC SKC SKC SKC SKC
FltCat VFR VFR VFR VFR VFR VFR VFR VFR VFR VFR VFR VFR VFR VFR
WX -- -- -- -- -- -- -- -- -- -- -- -- -- --
WDir 150 120 VRB VRB VRB VRB VRB VRB VRB VRB VRB VRB VRB VRB
WSpd 6 9 5 5 5 5 5 5 5 5 5 5 5 5
WGst 15 -- -- -- -- -- -- -- -- -- -- -- -- --

Raw TAF
KMIA 181720Z 1818/1918 12009KT P6SM SCT250
  FM190000 VRB05KT P6SM SKC


Raw METAR
KMIA 182153Z 15006G15KT 10SM FEW042 FEW210 BKN250 27/16 A3011 RMK AO2 SLP196 T02670156
KMIA 182053Z 14007KT 100V170 10SM SCT042 SCT210 BKN250 27/16 A3010 RMK AO2 SLP194 T02670161 56010
KMIA 181953Z 14006KT 10SM SCT040 BKN300 28/17 A3011 RMK AO2 SLP195 T02780172

METAR Board
Radar Display
Forecast Discussion

FOR SITUATIONAL AWARENESS. NOT TO BE USED FOR FLIGHT PLANNING PURPOSES.

Page loaded:  22:03 UTC  |   02:03 PM Pacific  |   03:03 PM Mountain  |   04:03 PM Central  |   05:03 PM Eastern

 

ADVISORIES

FORECASTS

FORECASTS

OBSERVATIONS

USER TOOLS

ABOUT US